sensor_id;sensor_type;location;lat;lon;timestamp;pressure;altitude;pressure_sealevel;temperature;humidity
12219;BME280;6172;42.646;23.344;2022-08-21T00:01:04;94155.50;;;17.61;100.00
12219;BME280;6172;42.646;23.344;2022-08-21T00:03:33;94161.34;;;17.54;100.00
12219;BME280;6172;42.646;23.344;2022-08-21T00:06:00;94162.34;;;17.42;100.00
12219;BME280;6172;42.646;23.344;2022-08-21T00:08:27;94150.19;;;17.33;100.00
12219;BME280;6172;42.646;23.344;2022-08-21T00:10:54;94138.59;;;17.29;100.00
12219;BME280;6172;42.646;23.344;2022-08-21T00:13:21;94152.78;;;17.52;100.00
12219;BME280;6172;42.646;23.344;2022-08-21T00:15:48;94122.09;;;17.44;100.00
12219;BME280;6172;42.646;23.344;2022-08-21T00:18:16;94141.94;;;17.57;100.00
12219;BME280;6172;42.646;23.344;2022-08-21T00:20:46;94139.91;;;17.58;100.00
12219;BME280;6172;42.646;23.344;2022-08-21T00:23:14;94126.66;;;17.47;100.00
12219;BME280;6172;42.646;23.344;2022-08-21T00:25:43;94137.63;;;17.56;100.00
12219;BME280;6172;42.646;23.344;2022-08-21T00:28:10;94133.00;;;17.62;100.00
12219;BME280;6172;42.646;23.344;2022-08-21T00:30:38;94132.81;;;17.66;100.00
12219;BME280;6172;42.646;23.344;2022-08-21T00:33:05;94118.47;;;17.62;100.00
12219;BME280;6172;42.646;23.344;2022-08-21T00:35:35;94105.16;;;17.37;100.00
12219;BME280;6172;42.646;23.344;2022-08-21T00:38:06;94111.72;;;17.39;100.00
12219;BME280;6172;42.646;23.344;2022-08-21T00:40:36;94129.28;;;17.42;100.00
12219;BME280;6172;42.646;23.344;2022-08-21T00:43:06;94129.97;;;17.37;100.00
12219;BME280;6172;42.646;23.344;2022-08-21T00:45:34;94133.34;;;17.31;100.00
12219;BME280;6172;42.646;23.344;2022-08-21T00:48:01;94128.75;;;17.14;100.00
12219;BME280;6172;42.646;23.344;2022-08-21T00:50:32;94144.31;;;17.41;100.00
12219;BME280;6172;42.646;23.344;2022-08-21T00:53:02;94147.38;;;17.43;100.00
12219;BME280;6172;42.646;23.344;2022-08-21T00:55:35;94139.72;;;17.38;100.00
12219;BME280;6172;42.646;23.344;2022-08-21T00:58:06;94130.47;;;17.50;100.00
12219;BME280;6172;42.646;23.344;2022-08-21T01:00:37;94113.75;;;17.53;100.00
12219;BME280;6172;42.646;23.344;2022-08-21T01:03:07;94107.56;;;17.44;100.00
12219;BME280;6172;42.646;23.344;2022-08-21T01:05:36;94114.59;;;17.45;100.00
12219;BME280;6172;42.646;23.344;2022-08-21T01:08:04;94123.38;;;17.58;100.00
12219;BME280;6172;42.646;23.344;2022-08-21T01:10:33;94119.69;;;17.61;100.00
12219;BME280;6172;42.646;23.344;2022-08-21T01:13:01;94115.47;;;17.51;100.00
12219;BME280;6172;42.646;23.344;2022-08-21T01:15:32;94103.28;;;17.43;100.00
12219;BME280;6172;42.646;23.344;2022-08-21T01:18:00;94113.59;;;17.57;100.00
12219;BME280;6172;42.646;23.344;2022-08-21T01:20:28;94104.75;;;17.53;100.00
12219;BME280;6172;42.646;23.344;2022-08-21T01:22:57;94102.50;;;17.66;100.00
12219;BME280;6172;42.646;23.344;2022-08-21T01:25:24;94079.72;;;17.42;100.00
12219;BME280;6172;42.646;23.344;2022-08-21T01:27:51;94096.25;;;17.42;100.00
12219;BME280;6172;42.646;23.344;2022-08-21T01:30:22;94101.75;;;17.42;100.00
12219;BME280;6172;42.646;23.344;2022-08-21T01:32:51;94074.94;;;17.27;100.00
12219;BME280;6172;42.646;23.344;2022-08-21T01:35:20;94071.72;;;17.29;100.00
12219;BME280;6172;42.646;23.344;2022-08-21T01:37:48;94107.63;;;17.34;100.00
12219;BME280;6172;42.646;23.344;2022-08-21T01:40:17;94097.00;;;17.42;100.00
12219;BME280;6172;42.646;23.344;2022-08-21T01:42:45;94094.16;;;17.60;100.00
12219;BME280;6172;42.646;23.344;2022-08-21T01:45:13;94079.16;;;17.52;100.00
12219;BME280;6172;42.646;23.344;2022-08-21T01:47:43;94094.63;;;17.59;100.00
12219;BME280;6172;42.646;23.344;2022-08-21T01:50:13;94066.13;;;17.38;100.00
12219;BME280;6172;42.646;23.344;2022-08-21T01:52:42;94100.28;;;17.55;100.00
12219;BME280;6172;42.646;23.344;2022-08-21T01:55:12;94103.72;;;17.65;100.00
12219;BME280;6172;42.646;23.344;2022-08-21T01:57:44;94105.53;;;17.68;100.00
12219;BME280;6172;42.646;23.344;2022-08-21T02:00:14;94110.78;;;17.66;100.00
12219;BME280;6172;42.646;23.344;2022-08-21T02:02:42;94110.06;;;17.56;100.00
12219;BME280;6172;42.646;23.344;2022-08-21T02:05:10;94109.00;;;17.54;100.00
12219;BME280;6172;42.646;23.344;2022-08-21T02:07:38;94114.00;;;17.64;100.00
12219;BME280;6172;42.646;23.344;2022-08-21T02:10:07;94095.50;;;17.41;100.00
12219;BME280;6172;42.646;23.344;2022-08-21T02:12:34;94111.16;;;17.59;100.00
12219;BME280;6172;42.646;23.344;2022-08-21T02:15:05;94096.38;;;17.47;100.00
12219;BME280;6172;42.646;23.344;2022-08-21T02:17:38;94085.47;;;17.29;100.00
12219;BME280;6172;42.646;23.344;2022-08-21T02:20:06;94120.03;;;17.54;100.00
12219;BME280;6172;42.646;23.344;2022-08-21T02:22:34;94122.06;;;17.29;100.00
12219;BME280;6172;42.646;23.344;2022-08-21T02:25:01;94131.31;;;17.17;100.00
12219;BME280;6172;42.646;23.344;2022-08-21T02:27:29;94136.00;;;17.02;100.00
12219;BME280;6172;42.646;23.344;2022-08-21T02:29:57;94139.63;;;17.08;100.00
12219;BME280;6172;42.646;23.344;2022-08-21T02:32:26;94150.31;;;17.15;100.00
12219;BME280;6172;42.646;23.344;2022-08-21T02:34:53;94149.06;;;17.16;100.00
12219;BME280;6172;42.646;23.344;2022-08-21T02:37:20;94144.81;;;17.15;100.00
12219;BME280;6172;42.646;23.344;2022-08-21T02:39:48;94143.59;;;17.07;100.00
12219;BME280;6172;42.646;23.344;2022-08-21T02:42:15;94138.41;;;17.09;100.00
12219;BME280;6172;42.646;23.344;2022-08-21T02:44:42;94146.31;;;17.16;100.00
12219;BME280;6172;42.646;23.344;2022-08-21T02:47:09;94119.59;;;17.08;100.00
12219;BME280;6172;42.646;23.344;2022-08-21T02:49:37;94127.75;;;17.02;100.00
12219;BME280;6172;42.646;23.344;2022-08-21T02:52:04;94141.50;;;17.02;100.00
12219;BME280;6172;42.646;23.344;2022-08-21T02:54:32;94144.50;;;17.13;100.00
12219;BME280;6172;42.646;23.344;2022-08-21T02:56:59;94139.53;;;17.26;100.00
12219;BME280;6172;42.646;23.344;2022-08-21T02:59:26;94137.13;;;17.19;100.00
12219;BME280;6172;42.646;23.344;2022-08-21T03:01:53;94124.44;;;17.13;100.00
12219;BME280;6172;42.646;23.344;2022-08-21T03:04:21;94122.88;;;17.21;100.00
12219;BME280;6172;42.646;23.344;2022-08-21T03:06:50;94130.31;;;17.29;100.00
12219;BME280;6172;42.646;23.344;2022-08-21T03:09:17;94127.03;;;17.16;100.00
12219;BME280;6172;42.646;23.344;2022-08-21T03:11:44;94125.75;;;17.03;100.00
12219;BME280;6172;42.646;23.344;2022-08-21T03:14:11;94106.94;;;17.01;100.00
12219;BME280;6172;42.646;23.344;2022-08-21T03:16:38;94119.50;;;17.02;100.00
12219;BME280;6172;42.646;23.344;2022-08-21T03:19:05;94105.66;;;17.11;100.00
12219;BME280;6172;42.646;23.344;2022-08-21T03:21:32;94108.94;;;17.01;100.00
12219;BME280;6172;42.646;23.344;2022-08-21T03:24:01;94124.66;;;17.09;100.00
12219;BME280;6172;42.646;23.344;2022-08-21T03:26:28;94120.66;;;17.10;100.00
12219;BME280;6172;42.646;23.344;2022-08-21T03:28:55;94106.34;;;16.97;100.00
12219;BME280;6172;42.646;23.344;2022-08-21T03:31:23;94117.19;;;16.77;100.00
12219;BME280;6172;42.646;23.344;2022-08-21T03:33:53;94104.94;;;16.78;100.00
12219;BME280;6172;42.646;23.344;2022-08-21T03:36:20;94104.63;;;16.85;100.00
12219;BME280;6172;42.646;23.344;2022-08-21T03:38:47;94137.88;;;16.96;100.00
12219;BME280;6172;42.646;23.344;2022-08-21T03:41:16;94110.59;;;16.84;100.00
12219;BME280;6172;42.646;23.344;2022-08-21T03:43:43;94119.59;;;16.84;100.00
12219;BME280;6172;42.646;23.344;2022-08-21T03:46:10;94121.44;;;16.78;100.00
12219;BME280;6172;42.646;23.344;2022-08-21T03:48:37;94119.81;;;16.63;100.00
12219;BME280;6172;42.646;23.344;2022-08-21T03:51:04;94130.44;;;16.46;100.00
12219;BME280;6172;42.646;23.344;2022-08-21T03:53:32;94126.44;;;16.06;100.00
12219;BME280;6172;42.646;23.344;2022-08-21T03:55:59;94149.81;;;16.10;100.00
12219;BME280;6172;42.646;23.344;2022-08-21T03:58:28;94149.22;;;16.06;100.00
12219;BME280;6172;42.646;23.344;2022-08-21T04:00:58;94165.78;;;16.21;100.00
12219;BME280;6172;42.646;23.344;2022-08-21T04:03:26;94157.41;;;16.24;100.00
12219;BME280;6172;42.646;23.344;2022-08-21T04:05:53;94147.84;;;16.02;100.00
12219;BME280;6172;42.646;23.344;2022-08-21T04:08:20;94146.28;;;16.10;100.00
12219;BME280;6172;42.646;23.344;2022-08-21T04:10:50;94173.91;;;16.15;100.00
12219;BME280;6172;42.646;23.344;2022-08-21T04:13:19;94162.00;;;16.18;100.00
12219;BME280;6172;42.646;23.344;2022-08-21T04:15:48;94167.81;;;16.11;100.00
12219;BME280;6172;42.646;23.344;2022-08-21T04:18:16;94159.91;;;15.95;100.00
12219;BME280;6172;42.646;23.344;2022-08-21T04:20:45;94166.63;;;15.94;100.00
12219;BME280;6172;42.646;23.344;2022-08-21T04:23:13;94154.44;;;15.86;100.00
12219;BME280;6172;42.646;23.344;2022-08-21T04:25:40;94166.91;;;16.14;100.00
12219;BME280;6172;42.646;23.344;2022-08-21T04:28:07;94164.16;;;16.14;100.00
12219;BME280;6172;42.646;23.344;2022-08-21T04:30:33;94157.75;;;16.08;100.00
12219;BME280;6172;42.646;23.344;2022-08-21T04:33:02;94169.19;;;16.16;100.00
12219;BME280;6172;42.646;23.344;2022-08-21T04:35:29;94160.97;;;15.98;100.00
12219;BME280;6172;42.646;23.344;2022-08-21T04:37:57;94170.56;;;16.02;100.00
12219;BME280;6172;42.646;23.344;2022-08-21T04:40:26;94163.25;;;15.99;100.00
12219;BME280;6172;42.646;23.344;2022-08-21T04:43:00;94148.03;;;15.80;100.00
12219;BME280;6172;42.646;23.344;2022-08-21T04:45:29;94166.75;;;16.00;100.00
12219;BME280;6172;42.646;23.344;2022-08-21T04:48:00;94171.97;;;15.98;100.00
12219;BME280;6172;42.646;23.344;2022-08-21T04:50:34;94165.06;;;16.11;100.00
12219;BME280;6172;42.646;23.344;2022-08-21T04:53:08;94166.25;;;16.28;100.00
12219;BME280;6172;42.646;23.344;2022-08-21T04:55:37;94159.56;;;16.20;100.00
12219;BME280;6172;42.646;23.344;2022-08-21T04:58:05;94153.41;;;16.25;100.00
12219;BME280;6172;42.646;23.344;2022-08-21T05:00:34;94158.28;;;16.39;100.00
12219;BME280;6172;42.646;23.344;2022-08-21T05:03:02;94143.00;;;16.38;100.00
12219;BME280;6172;42.646;23.344;2022-08-21T05:05:33;94134.22;;;16.58;100.00
12219;BME280;6172;42.646;23.344;2022-08-21T05:08:02;94151.56;;;16.82;100.00
12219;BME280;6172;42.646;23.344;2022-08-21T05:10:30;94116.78;;;16.93;100.00
12219;BME280;6172;42.646;23.344;2022-08-21T05:12:58;94146.66;;;17.33;100.00
12219;BME280;6172;42.646;23.344;2022-08-21T05:15:26;94122.31;;;17.55;100.00
12219;BME280;6172;42.646;23.344;2022-08-21T05:17:55;94106.56;;;17.32;100.00
12219;BME280;6172;42.646;23.344;2022-08-21T05:20:23;94111.41;;;17.22;100.00
12219;BME280;6172;42.646;23.344;2022-08-21T05:22:52;94109.59;;;17.58;100.00
12219;BME280;6172;42.646;23.344;2022-08-21T05:25:19;94119.50;;;17.64;100.00
12219;BME280;6172;42.646;23.344;2022-08-21T05:27:46;94125.53;;;17.77;100.00
12219;BME280;6172;42.646;23.344;2022-08-21T05:30:13;94120.59;;;17.81;100.00
12219;BME280;6172;42.646;23.344;2022-08-21T05:32:40;94111.19;;;17.73;100.00
12219;BME280;6172;42.646;23.344;2022-08-21T05:35:07;94089.31;;;17.99;100.00
12219;BME280;6172;42.646;23.344;2022-08-21T05:37:35;94101.88;;;18.58;100.00
12219;BME280;6172;42.646;23.344;2022-08-21T05:40:09;94074.28;;;19.52;100.00
12219;BME280;6172;42.646;23.344;2022-08-21T05:42:38;94065.31;;;20.40;100.00
12219;BME280;6172;42.646;23.344;2022-08-21T05:45:06;94043.25;;;21.40;100.00
12219;BME280;6172;42.646;23.344;2022-08-21T05:47:33;94017.03;;;21.47;100.00
12219;BME280;6172;42.646;23.344;2022-08-21T05:50:00;94027.31;;;22.44;100.00
12219;BME280;6172;42.646;23.344;2022-08-21T05:52:27;94033.28;;;21.82;100.00
12219;BME280;6172;42.646;23.344;2022-08-21T05:54:55;94042.47;;;21.40;100.00
12219;BME280;6172;42.646;23.344;2022-08-21T05:57:24;94036.44;;;21.41;100.00
12219;BME280;6172;42.646;23.344;2022-08-21T05:59:51;94050.41;;;21.05;100.00
12219;BME280;6172;42.646;23.344;2022-08-21T06:02:19;94030.94;;;20.52;100.00
12219;BME280;6172;42.646;23.344;2022-08-21T06:04:47;94050.94;;;20.36;100.00
12219;BME280;6172;42.646;23.344;2022-08-21T06:07:14;94069.34;;;19.88;100.00
12219;BME280;6172;42.646;23.344;2022-08-21T06:09:41;94034.88;;;20.09;100.00
12219;BME280;6172;42.646;23.344;2022-08-21T06:12:12;94051.81;;;20.53;100.00
12219;BME280;6172;42.646;23.344;2022-08-21T06:14:42;94055.72;;;20.72;100.00
12219;BME280;6172;42.646;23.344;2022-08-21T06:17:11;94038.53;;;20.62;100.00
12219;BME280;6172;42.646;23.344;2022-08-21T06:19:41;94055.16;;;20.62;100.00
12219;BME280;6172;42.646;23.344;2022-08-21T06:22:07;94051.59;;;20.25;100.00
12219;BME280;6172;42.646;23.344;2022-08-21T06:24:34;94059.56;;;20.43;100.00
12219;BME280;6172;42.646;23.344;2022-08-21T06:27:04;94039.63;;;20.39;100.00
12219;BME280;6172;42.646;23.344;2022-08-21T06:29:34;94061.78;;;20.39;100.00
12219;BME280;6172;42.646;23.344;2022-08-21T06:32:05;94033.59;;;20.04;100.00
12219;BME280;6172;42.646;23.344;2022-08-21T06:34:36;94065.44;;;20.00;100.00
12219;BME280;6172;42.646;23.344;2022-08-21T06:37:04;94048.00;;;19.88;100.00
12219;BME280;6172;42.646;23.344;2022-08-21T06:39:31;94053.38;;;19.97;100.00
12219;BME280;6172;42.646;23.344;2022-08-21T06:41:58;94047.06;;;20.22;100.00
12219;BME280;6172;42.646;23.344;2022-08-21T06:44:25;94064.59;;;20.45;100.00
12219;BME280;6172;42.646;23.344;2022-08-21T06:46:52;94074.38;;;20.77;100.00
12219;BME280;6172;42.646;23.344;2022-08-21T06:49:21;94063.28;;;21.13;100.00
12219;BME280;6172;42.646;23.344;2022-08-21T06:51:48;94057.56;;;20.80;100.00
12219;BME280;6172;42.646;23.344;2022-08-21T06:54:15;94056.09;;;20.54;100.00
12219;BME280;6172;42.646;23.344;2022-08-21T06:56:43;94074.63;;;20.73;100.00
12219;BME280;6172;42.646;23.344;2022-08-21T06:59:10;94059.69;;;20.96;100.00
12219;BME280;6172;42.646;23.344;2022-08-21T07:01:38;94062.59;;;21.94;100.00
12219;BME280;6172;42.646;23.344;2022-08-21T07:04:06;94064.34;;;21.97;100.00
12219;BME280;6172;42.646;23.344;2022-08-21T07:06:43;94060.00;;;21.62;100.00
12219;BME280;6172;42.646;23.344;2022-08-21T07:09:10;94018.91;;;21.83;100.00
12219;BME280;6172;42.646;23.344;2022-08-21T07:11:37;94038.84;;;23.03;100.00
12219;BME280;6172;42.646;23.344;2022-08-21T07:14:04;94051.84;;;23.46;100.00
12219;BME280;6172;42.646;23.344;2022-08-21T07:16:32;94033.97;;;23.88;100.00
12219;BME280;6172;42.646;23.344;2022-08-21T07:19:00;94047.16;;;23.14;100.00
12219;BME280;6172;42.646;23.344;2022-08-21T07:21:28;94050.78;;;22.48;100.00
12219;BME280;6172;42.646;23.344;2022-08-21T07:24:08;94065.84;;;21.98;100.00
12219;BME280;6172;42.646;23.344;2022-08-21T07:26:49;94026.44;;;21.55;100.00
12219;BME280;6172;42.646;23.344;2022-08-21T07:29:21;94054.69;;;21.64;100.00
12219;BME280;6172;42.646;23.344;2022-08-21T07:31:48;94046.16;;;21.85;100.00
12219;BME280;6172;42.646;23.344;2022-08-21T07:34:15;94033.09;;;22.79;100.00
12219;BME280;6172;42.646;23.344;2022-08-21T07:36:42;94025.66;;;23.77;100.00
12219;BME280;6172;42.646;23.344;2022-08-21T07:39:11;94022.53;;;24.91;100.00
12219;BME280;6172;42.646;23.344;2022-08-21T07:41:38;94016.53;;;26.41;98.27
12219;BME280;6172;42.646;23.344;2022-08-21T07:44:04;94016.22;;;26.45;93.15
12219;BME280;6172;42.646;23.344;2022-08-21T07:46:32;94012.84;;;25.16;92.01
12219;BME280;6172;42.646;23.344;2022-08-21T07:48:59;94005.66;;;25.26;94.30
12219;BME280;6172;42.646;23.344;2022-08-21T07:51:27;94011.81;;;24.07;100.00
12219;BME280;6172;42.646;23.344;2022-08-21T07:53:57;93995.81;;;23.77;100.00
12219;BME280;6172;42.646;23.344;2022-08-21T07:56:27;94014.94;;;24.33;100.00
12219;BME280;6172;42.646;23.344;2022-08-21T07:58:54;94004.28;;;25.57;100.00
12219;BME280;6172;42.646;23.344;2022-08-21T08:01:23;94019.75;;;25.95;95.34
12219;BME280;6172;42.646;23.344;2022-08-21T08:03:50;94005.06;;;27.02;81.36
12219;BME280;6172;42.646;23.344;2022-08-21T08:06:17;93991.84;;;27.16;76.50
12219;BME280;6172;42.646;23.344;2022-08-21T08:08:46;94019.22;;;26.47;86.68
12219;BME280;6172;42.646;23.344;2022-08-21T08:11:13;94011.66;;;25.91;90.45
12219;BME280;6172;42.646;23.344;2022-08-21T08:13:45;94011.81;;;25.19;98.45
12219;BME280;6172;42.646;23.344;2022-08-21T08:16:12;94017.31;;;24.77;100.00
12219;BME280;6172;42.646;23.344;2022-08-21T08:18:39;93997.09;;;24.12;100.00
12219;BME280;6172;42.646;23.344;2022-08-21T08:21:08;94009.22;;;23.79;100.00
12219;BME280;6172;42.646;23.344;2022-08-21T08:23:35;94019.25;;;23.93;100.00
12219;BME280;6172;42.646;23.344;2022-08-21T08:26:02;94024.44;;;23.67;100.00
12219;BME280;6172;42.646;23.344;2022-08-21T08:28:30;93991.97;;;23.34;100.00
12219;BME280;6172;42.646;23.344;2022-08-21T08:30:59;94007.63;;;22.47;100.00
12219;BME280;6172;42.646;23.344;2022-08-21T08:33:26;94018.22;;;22.60;100.00
12219;BME280;6172;42.646;23.344;2022-08-21T08:35:54;94027.00;;;22.03;100.00
12219;BME280;6172;42.646;23.344;2022-08-21T08:38:23;94026.94;;;21.53;100.00
12219;BME280;6172;42.646;23.344;2022-08-21T08:40:55;94031.00;;;21.63;100.00
12219;BME280;6172;42.646;23.344;2022-08-21T08:43:25;94027.47;;;21.63;100.00
12219;BME280;6172;42.646;23.344;2022-08-21T08:45:55;94030.13;;;21.35;100.00
12219;BME280;6172;42.646;23.344;2022-08-21T08:48:38;94035.81;;;21.10;100.00
12219;BME280;6172;42.646;23.344;2022-08-21T08:51:09;94022.28;;;21.34;100.00
12219;BME280;6172;42.646;23.344;2022-08-21T08:53:46;94025.91;;;21.51;100.00
12219;BME280;6172;42.646;23.344;2022-08-21T08:56:18;94025.22;;;21.78;100.00
12219;BME280;6172;42.646;23.344;2022-08-21T08:58:48;94014.66;;;22.10;100.00
12219;BME280;6172;42.646;23.344;2022-08-21T09:01:19;94011.91;;;22.43;100.00
12219;BME280;6172;42.646;23.344;2022-08-21T09:03:49;93991.19;;;22.55;100.00
12219;BME280;6172;42.646;23.344;2022-08-21T09:06:46;94004.75;;;23.08;100.00
12219;BME280;6172;42.646;23.344;2022-08-21T09:09:29;93993.63;;;23.54;100.00
12219;BME280;6172;42.646;23.344;2022-08-21T09:12:03;94001.72;;;23.63;100.00
12219;BME280;6172;42.646;23.344;2022-08-21T09:14:47;93983.47;;;24.08;100.00
12219;BME280;6172;42.646;23.344;2022-08-21T09:17:26;93974.78;;;23.36;100.00
12219;BME280;6172;42.646;23.344;2022-08-21T09:20:11;93987.53;;;23.66;100.00
12219;BME280;6172;42.646;23.344;2022-08-21T09:22:50;93975.09;;;24.08;100.00
12219;BME280;6172;42.646;23.344;2022-08-21T09:25:21;93980.84;;;23.34;100.00
12219;BME280;6172;42.646;23.344;2022-08-21T09:27:49;93959.56;;;22.80;100.00
12219;BME280;6172;42.646;23.344;2022-08-21T09:30:17;93967.63;;;23.51;100.00
12219;BME280;6172;42.646;23.344;2022-08-21T09:32:46;93960.50;;;23.61;100.00
12219;BME280;6172;42.646;23.344;2022-08-21T09:35:16;93984.78;;;23.04;100.00
12219;BME280;6172;42.646;23.344;2022-08-21T09:37:49;93968.59;;;23.13;100.00
12219;BME280;6172;42.646;23.344;2022-08-21T09:40:31;93977.03;;;23.43;100.00
12219;BME280;6172;42.646;23.344;2022-08-21T09:43:00;93977.97;;;23.56;100.00
12219;BME280;6172;42.646;23.344;2022-08-21T09:45:28;93974.75;;;22.79;100.00
12219;BME280;6172;42.646;23.344;2022-08-21T09:47:55;93953.59;;;22.43;100.00
12219;BME280;6172;42.646;23.344;2022-08-21T09:50:26;93975.56;;;22.41;100.00
12219;BME280;6172;42.646;23.344;2022-08-21T09:52:56;93966.50;;;22.13;100.00
12219;BME280;6172;42.646;23.344;2022-08-21T09:55:31;93960.19;;;22.01;100.00
12219;BME280;6172;42.646;23.344;2022-08-21T09:58:16;93966.72;;;21.82;100.00
12219;BME280;6172;42.646;23.344;2022-08-21T10:00:44;93973.28;;;21.90;100.00
12219;BME280;6172;42.646;23.344;2022-08-21T10:03:16;93975.81;;;21.77;100.00
12219;BME280;6172;42.646;23.344;2022-08-21T10:05:59;93974.00;;;21.57;100.00
12219;BME280;6172;42.646;23.344;2022-08-21T10:08:28;93952.69;;;21.10;100.00
12219;BME280;6172;42.646;23.344;2022-08-21T10:10:57;93976.91;;;21.20;100.00
12219;BME280;6172;42.646;23.344;2022-08-21T10:13:37;93973.72;;;21.44;100.00
12219;BME280;6172;42.646;23.344;2022-08-21T10:16:15;93967.91;;;21.47;100.00
12219;BME280;6172;42.646;23.344;2022-08-21T10:18:52;93962.88;;;21.46;100.00
12219;BME280;6172;42.646;23.344;2022-08-21T10:21:28;93955.91;;;22.06;100.00
12219;BME280;6172;42.646;23.344;2022-08-21T10:24:09;93946.78;;;22.44;100.00
12219;BME280;6172;42.646;23.344;2022-08-21T10:26:50;93945.19;;;22.76;100.00
12219;BME280;6172;42.646;23.344;2022-08-21T10:32:37;93940.56;;;23.06;100.00
12219;BME280;6172;42.646;23.344;2022-08-21T10:35:13;93942.13;;;22.90;100.00
12219;BME280;6172;42.646;23.344;2022-08-21T10:40:53;93944.63;;;23.05;100.00
12219;BME280;6172;42.646;23.344;2022-08-21T10:43:35;93926.34;;;23.20;100.00
12219;BME280;6172;42.646;23.344;2022-08-21T10:46:11;93928.00;;;23.80;100.00
12219;BME280;6172;42.646;23.344;2022-08-21T10:48:47;93933.78;;;24.47;100.00
12219;BME280;6172;42.646;23.344;2022-08-21T10:51:20;93928.69;;;24.51;100.00
12219;BME280;6172;42.646;23.344;2022-08-21T10:54:00;93928.34;;;24.60;100.00
12219;BME280;6172;42.646;23.344;2022-08-21T10:56:36;93904.41;;;24.70;100.00
12219;BME280;6172;42.646;23.344;2022-08-21T10:59:19;93889.47;;;24.20;100.00
12219;BME280;6172;42.646;23.344;2022-08-21T11:01:55;93907.72;;;24.45;100.00
12219;BME280;6172;42.646;23.344;2022-08-21T11:04:29;93909.41;;;24.77;98.18
12219;BME280;6172;42.646;23.344;2022-08-21T11:07:02;93905.91;;;24.95;98.22
12219;BME280;6172;42.646;23.344;2022-08-21T11:09:30;93889.50;;;24.86;96.04
12219;BME280;6172;42.646;23.344;2022-08-21T11:12:16;93900.06;;;25.36;89.22
12219;BME280;6172;42.646;23.344;2022-08-21T11:14:51;93894.34;;;23.84;96.54
12219;BME280;6172;42.646;23.344;2022-08-21T11:17:26;93893.28;;;23.87;100.00
12219;BME280;6172;42.646;23.344;2022-08-21T11:20:02;93880.66;;;24.16;100.00
12219;BME280;6172;42.646;23.344;2022-08-21T11:22:36;93860.38;;;23.91;98.92
12219;BME280;6172;42.646;23.344;2022-08-21T11:25:09;93880.28;;;24.54;96.43
12219;BME280;6172;42.646;23.344;2022-08-21T11:27:43;93875.94;;;24.77;91.94
12219;BME280;6172;42.646;23.344;2022-08-21T11:30:13;93877.56;;;24.91;94.66
12219;BME280;6172;42.646;23.344;2022-08-21T11:33:01;93890.63;;;24.78;96.23
12219;BME280;6172;42.646;23.344;2022-08-21T11:35:37;93874.31;;;24.63;94.51
12219;BME280;6172;42.646;23.344;2022-08-21T11:38:22;93882.78;;;25.00;88.37
12219;BME280;6172;42.646;23.344;2022-08-21T11:41:02;93865.13;;;24.92;88.32
12219;BME280;6172;42.646;23.344;2022-08-21T11:43:39;93876.00;;;24.96;91.80
12219;BME280;6172;42.646;23.344;2022-08-21T11:46:17;93875.56;;;24.86;90.93
12219;BME280;6172;42.646;23.344;2022-08-21T11:48:59;93890.66;;;24.96;93.82
12219;BME280;6172;42.646;23.344;2022-08-21T11:51:32;93882.91;;;25.08;88.84
12219;BME280;6172;42.646;23.344;2022-08-21T11:54:07;93875.03;;;25.12;88.22
12219;BME280;6172;42.646;23.344;2022-08-21T11:56:38;93891.59;;;25.04;89.63
12219;BME280;6172;42.646;23.344;2022-08-21T11:59:13;93874.63;;;25.02;88.76
12219;BME280;6172;42.646;23.344;2022-08-21T12:01:43;93882.94;;;24.84;90.91
12219;BME280;6172;42.646;23.344;2022-08-21T12:04:18;93842.84;;;24.26;95.20
12219;BME280;6172;42.646;23.344;2022-08-21T12:06:46;93863.19;;;24.39;97.44
12219;BME280;6172;42.646;23.344;2022-08-21T12:09:31;93857.06;;;23.63;100.00
12219;BME280;6172;42.646;23.344;2022-08-21T12:12:02;93851.78;;;23.19;100.00
12219;BME280;6172;42.646;23.344;2022-08-21T12:14:41;93842.19;;;23.20;100.00
12219;BME280;6172;42.646;23.344;2022-08-21T12:17:17;93842.47;;;23.51;100.00
12219;BME280;6172;42.646;23.344;2022-08-21T12:19:57;93852.47;;;23.71;100.00
12219;BME280;6172;42.646;23.344;2022-08-21T12:22:36;93872.25;;;23.62;100.00
12219;BME280;6172;42.646;23.344;2022-08-21T12:25:06;93869.69;;;23.64;100.00
12219;BME280;6172;42.646;23.344;2022-08-21T12:27:45;93877.50;;;23.71;100.00
12219;BME280;6172;42.646;23.344;2022-08-21T12:30:32;93871.16;;;23.70;100.00
12219;BME280;6172;42.646;23.344;2022-08-21T12:33:01;93866.91;;;23.29;100.00
12219;BME280;6172;42.646;23.344;2022-08-21T12:35:40;93870.69;;;22.74;100.00
12219;BME280;6172;42.646;23.344;2022-08-21T12:38:12;93873.00;;;22.65;100.00
12219;BME280;6172;42.646;23.344;2022-08-21T12:40:45;93866.88;;;22.83;100.00
12219;BME280;6172;42.646;23.344;2022-08-21T12:43:23;93867.03;;;23.07;100.00
12219;BME280;6172;42.646;23.344;2022-08-21T12:45:53;93858.47;;;23.05;100.00
12219;BME280;6172;42.646;23.344;2022-08-21T12:48:25;93863.34;;;23.28;100.00
12219;BME280;6172;42.646;23.344;2022-08-21T12:50:54;93857.06;;;23.22;100.00
12219;BME280;6172;42.646;23.344;2022-08-21T12:53:27;93865.16;;;23.26;100.00
12219;BME280;6172;42.646;23.344;2022-08-21T12:55:57;93869.16;;;23.30;100.00
12219;BME280;6172;42.646;23.344;2022-08-21T12:58:28;93864.78;;;23.00;100.00
12219;BME280;6172;42.646;23.344;2022-08-21T13:01:21;93855.31;;;22.68;100.00
12219;BME280;6172;42.646;23.344;2022-08-21T13:03:57;93849.75;;;22.73;100.00
12219;BME280;6172;42.646;23.344;2022-08-21T13:06:28;93851.72;;;22.78;100.00
12219;BME280;6172;42.646;23.344;2022-08-21T13:09:03;93844.94;;;22.74;100.00
12219;BME280;6172;42.646;23.344;2022-08-21T13:11:33;93849.06;;;22.51;100.00
12219;BME280;6172;42.646;23.344;2022-08-21T13:14:03;93853.13;;;22.50;100.00